Aviation Digital Data Service (ADDS)

Output produced by METARs form (0222 UTC 22 April 2019)
found at http://www.aviationweather.gov/metar/data/
 
METAR text: KFAR 220153Z AUTO 06007KT 10SM OVC110 12/04 A3005 RMK AO2 SLP181 T01220044 TSNO
Conditions at: KFAR (FARGO , ND, US) observed 0153 UTC 22 April 2019
Temperature: 12.2°C (54°F)
Dewpoint: 4.4°C (40°F) [RH = 59%]
Pressure (altimeter): 30.05 inches Hg (1017.7 mb)
[Sea-level pressure: 1018.1 mb]
Winds: from the ENE (60 degrees) at 8 MPH (7 knots; 3.6 m/s)
Visibility: 10 or more miles (16+ km)
Ceiling: 11000 feet AGL
Clouds: overcast cloud deck at 11000 feet AGL
Weather: automated observation with no human augmentation;
there may or may not be significant weather present at this time

METAR text: KFAR 220053Z AUTO 05008KT 10SM BKN110 13/04 A3003 RMK AO2 SLP175 T01330044 TSNO
Conditions at: KFAR (FARGO , ND, US) observed 0053 UTC 22 April 2019
Temperature: 13.3°C (56°F)
Dewpoint: 4.4°C (40°F) [RH = 55%]
Pressure (altimeter): 30.03 inches Hg (1017.0 mb)
[Sea-level pressure: 1017.5 mb]
Winds: from the NE (50 degrees) at 9 MPH (8 knots; 4.1 m/s)
Visibility: 10 or more miles (16+ km)
Ceiling: 11000 feet AGL
Clouds: broken clouds at 11000 feet AGL
Weather: automated observation with no human augmentation;
there may or may not be significant weather present at this time

METAR text: KFAR 212353Z AUTO 05011KT 10SM CLR 14/04 A3001 RMK AO2 SLP168 T01440039 10178 20144 53013 TSNO
Conditions at: KFAR (FARGO , ND, US) observed 2353 UTC 21 April 2019
Temperature: 14.4°C (58°F)
Dewpoint: 3.9°C (39°F) [RH = 49%]
Pressure (altimeter): 30.01 inches Hg (1016.3 mb)
[Sea-level pressure: 1016.8 mb]
Winds: from the NE (50 degrees) at 13 MPH (11 knots; 5.7 m/s)
Visibility: 10 or more miles (16+ km)
Ceiling: at least 12,000 feet AGL
Clouds: sky clear below 12,000 feet AGL
Weather: automated observation with no human augmentation;
there may or may not be significant weather present at this time

METAR text: KFAR 212253Z 06014KT 10SM CLR 16/05 A3000 RMK AO2 SLP163 T01560050
Conditions at: KFAR (FARGO , ND, US) observed 2253 UTC 21 April 2019
Temperature: 15.6°C (60°F)
Dewpoint: 5.0°C (41°F) [RH = 49%]
Pressure (altimeter): 30.00 inches Hg (1016.0 mb)
[Sea-level pressure: 1016.3 mb]
Winds: from the ENE (60 degrees) at 16 MPH (14 knots; 7.2 m/s)
Visibility: 10 or more miles (16+ km)
Ceiling: at least 12,000 feet AGL
Clouds: sky clear below 12,000 feet AGL
Weather: no significant weather observed at this time

METAR text: KFAR 212153Z 05016G24KT 10SM CLR 17/04 A2998 RMK AO2 SLP155 T01670044
Conditions at: KFAR (FARGO , ND, US) observed 2153 UTC 21 April 2019
Temperature: 16.7°C (62°F)
Dewpoint: 4.4°C (40°F) [RH = 44%]
Pressure (altimeter): 29.98 inches Hg (1015.3 mb)
[Sea-level pressure: 1015.5 mb]
Winds: from the NE (50 degrees) at 18 MPH (16 knots; 8.2 m/s)
gusting to 28 MPH (24 knots; 12.3 m/s)
Visibility: 10 or more miles (16+ km)
Ceiling: at least 12,000 feet AGL
Clouds: sky clear below 12,000 feet AGL
Weather: no significant weather observed at this time

METAR text: KFAR 212053Z 05018G24KT 10SM CLR 17/04 A2997 RMK AO2 PK WND 05027/2030 SLP153 T01670044 51019
Conditions at: KFAR (FARGO , ND, US) observed 2053 UTC 21 April 2019
Temperature: 16.7°C (62°F)
Dewpoint: 4.4°C (40°F) [RH = 44%]
Pressure (altimeter): 29.97 inches Hg (1015.0 mb)
[Sea-level pressure: 1015.3 mb]
Winds: from the NE (50 degrees) at 21 MPH (18 knots; 9.3 m/s)
gusting to 28 MPH (24 knots; 12.3 m/s)
Visibility: 10 or more miles (16+ km)
Ceiling: at least 12,000 feet AGL
Clouds: sky clear below 12,000 feet AGL
Weather: no significant weather observed at this time

METAR text: KFAR 211953Z 05021G28KT 10SM CLR 17/05 A2996 RMK AO2 PK WND 05031/1924 SLP149 T01720050
Conditions at: KFAR (FARGO , ND, US) observed 1953 UTC 21 April 2019
Temperature: 17.2°C (63°F)
Dewpoint: 5.0°C (41°F) [RH = 44%]
Pressure (altimeter): 29.96 inches Hg (1014.6 mb)
[Sea-level pressure: 1014.9 mb]
Winds: from the NE (50 degrees) at 24 MPH (21 knots; 10.8 m/s)
gusting to 32 MPH (28 knots; 14.4 m/s)
Visibility: 10 or more miles (16+ km)
Ceiling: at least 12,000 feet AGL
Clouds: sky clear below 12,000 feet AGL
Weather: no significant weather observed at this time

METAR text: KFAR 211853Z 05020G30KT 10SM CLR 17/05 A2995 RMK AO2 PK WND 05033/1822 SLP145 T01670050
Conditions at: KFAR (FARGO , ND, US) observed 1853 UTC 21 April 2019
Temperature: 16.7°C (62°F)
Dewpoint: 5.0°C (41°F) [RH = 46%]
Pressure (altimeter): 29.95 inches Hg (1014.3 mb)
[Sea-level pressure: 1014.5 mb]
Winds: from the NE (50 degrees) at 23 MPH (20 knots; 10.3 m/s)
gusting to 34 MPH (30 knots; 15.4 m/s)
Visibility: 10 or more miles (16+ km)
Ceiling: at least 12,000 feet AGL
Clouds: sky clear below 12,000 feet AGL
Weather: no significant weather observed at this time

METAR text: KFAR 211753Z 06018G28KT 10SM CLR 16/08 A2992 RMK AO2 PK WND 05032/1743 SLP133 T01610078 10161 20083 50004
Conditions at: KFAR (FARGO , ND, US) observed 1753 UTC 21 April 2019
Temperature: 16.1°C (61°F)
Dewpoint: 7.8°C (46°F) [RH = 58%]
Pressure (altimeter): 29.92 inches Hg (1013.3 mb)
[Sea-level pressure: 1013.3 mb]
Winds: from the ENE (60 degrees) at 21 MPH (18 knots; 9.3 m/s)
gusting to 32 MPH (28 knots; 14.4 m/s)
Visibility: 10 or more miles (16+ km)
Ceiling: at least 12,000 feet AGL
Clouds: sky clear below 12,000 feet AGL
Weather: no significant weather observed at this time

METAR text: KFAR 211653Z 04018G23KT 10SM CLR 15/09 A2993 RMK AO2 SLP138 T01500089
Conditions at: KFAR (FARGO , ND, US) observed 1653 UTC 21 April 2019
Temperature: 15.0°C (59°F)
Dewpoint: 8.9°C (48°F) [RH = 67%]
Pressure (altimeter): 29.93 inches Hg (1013.6 mb)
[Sea-level pressure: 1013.8 mb]
Winds: from the NE (40 degrees) at 21 MPH (18 knots; 9.3 m/s)
gusting to 26 MPH (23 knots; 11.8 m/s)
Visibility: 10 or more miles (16+ km)
Ceiling: at least 12,000 feet AGL
Clouds: sky clear below 12,000 feet AGL
Weather: no significant weather observed at this time

METAR text: KFAR 211553Z 05015G20KT 10SM CLR 13/08 A2992 RMK AO2 SLP135 T01330083
Conditions at: KFAR (FARGO , ND, US) observed 1553 UTC 21 April 2019
Temperature: 13.3°C (56°F)
Dewpoint: 8.3°C (47°F) [RH = 72%]
Pressure (altimeter): 29.92 inches Hg (1013.3 mb)
[Sea-level pressure: 1013.5 mb]
Winds: from the NE (50 degrees) at 17 MPH (15 knots; 7.7 m/s)
gusting to 23 MPH (20 knots; 10.3 m/s)
Visibility: 10 or more miles (16+ km)
Ceiling: at least 12,000 feet AGL
Clouds: sky clear below 12,000 feet AGL
Weather: no significant weather observed at this time

METAR text: KFAR 211453Z 05011KT 10SM CLR 12/08 A2991 RMK AO2 SLP130 T01170083 51029
Conditions at: KFAR (FARGO , ND, US) observed 1453 UTC 21 April 2019
Temperature: 11.7°C (53°F)
Dewpoint: 8.3°C (47°F) [RH = 80%]
Pressure (altimeter): 29.91 inches Hg (1013.0 mb)
[Sea-level pressure: 1013.0 mb]
Winds: from the NE (50 degrees) at 13 MPH (11 knots; 5.7 m/s)
Visibility: 10 or more miles (16+ km)
Ceiling: at least 12,000 feet AGL
Clouds: sky clear below 12,000 feet AGL
Weather: no significant weather observed at this time

METAR text: KFAR 211353Z 03010KT 10SM BKN040 OVC110 10/08 A2989 RMK AO2 SLP124 T01000078
Conditions at: KFAR (FARGO , ND, US) observed 1353 UTC 21 April 2019
Temperature: 10.0°C (50°F)
Dewpoint: 7.8°C (46°F) [RH = 86%]
Pressure (altimeter): 29.89 inches Hg (1012.3 mb)
[Sea-level pressure: 1012.4 mb]
Winds: from the NNE (30 degrees) at 12 MPH (10 knots; 5.1 m/s)
Visibility: 10 or more miles (16+ km)
Ceiling: 4000 feet AGL
Clouds: broken clouds at 4000 feet AGL
overcast cloud deck at 11000 feet AGL
Weather: no significant weather observed at this time

METAR text: KFAR 211253Z AUTO 04010KT 10SM SCT038 OVC110 08/07 A2987 RMK AO2 SLP117 T00830067 TSNO
Conditions at: KFAR (FARGO , ND, US) observed 1253 UTC 21 April 2019
Temperature: 8.3°C (47°F)
Dewpoint: 6.7°C (44°F) [RH = 90%]
Pressure (altimeter): 29.87 inches Hg (1011.6 mb)
[Sea-level pressure: 1011.7 mb]
Winds: from the NE (40 degrees) at 12 MPH (10 knots; 5.1 m/s)
Visibility: 10 or more miles (16+ km)
Ceiling: 11000 feet AGL
Clouds: scattered clouds at 3800 feet AGL
overcast cloud deck at 11000 feet AGL
Weather: automated observation with no human augmentation;
there may or may not be significant weather present at this time

METAR text: KFAR 211153Z AUTO 05014KT 10SM BKN034 08/06 A2982 RMK AO2 SLP100 60004 70004 T00830056 10117 20083 53007 TSNO
Conditions at: KFAR (FARGO , ND, US) observed 1153 UTC 21 April 2019
Temperature: 8.3°C (47°F)
Dewpoint: 5.6°C (42°F) [RH = 83%]
Pressure (altimeter): 29.82 inches Hg (1009.9 mb)
[Sea-level pressure: 1010.0 mb]
Winds: from the NE (50 degrees) at 16 MPH (14 knots; 7.2 m/s)
Visibility: 10 or more miles (16+ km)
Ceiling: 3400 feet AGL
Clouds: broken clouds at 3400 feet AGL
Weather: automated observation with no human augmentation;
there may or may not be significant weather present at this time

METAR text: KFAR 211053Z AUTO 06013KT 10SM SCT110 09/06 A2979 RMK AO2 PK WND 05026/1003 RAE23 SLP091 P0001 T00890061 TSNO
Conditions at: KFAR (FARGO , ND, US) observed 1053 UTC 21 April 2019
Temperature: 8.9°C (48°F)
Dewpoint: 6.1°C (43°F) [RH = 83%]
Pressure (altimeter): 29.79 inches Hg (1008.9 mb)
[Sea-level pressure: 1009.1 mb]
Winds: from the ENE (60 degrees) at 15 MPH (13 knots; 6.7 m/s)
Visibility: 10 or more miles (16+ km)
Ceiling: at least 12,000 feet AGL
Clouds: scattered clouds at 11000 feet AGL
Weather: automated observation with no human augmentation;
there may or may not be significant weather present at this time

METAR text: KFAR 210953Z AUTO 06018KT 9SM -RA OVC090 09/07 A2977 RMK AO2 PRESFR SLP085 P0002 T00940067 TSNO
Conditions at: KFAR (FARGO , ND, US) observed 0953 UTC 21 April 2019
Temperature: 9.4°C (49°F)
Dewpoint: 6.7°C (44°F) [RH = 83%]
Pressure (altimeter): 29.77 inches Hg (1008.2 mb)
[Sea-level pressure: 1008.5 mb]
Winds: from the ENE (60 degrees) at 21 MPH (18 knots; 9.3 m/s)
Visibility: 9 miles (14 km)
Ceiling: 9000 feet AGL
Clouds: overcast cloud deck at 9000 feet AGL
Weather: -RA  (light rain)

METAR text: KFAR 210853Z AUTO 06011KT 10SM -RA BKN100 BKN110 09/08 A2980 RMK AO2 SLP093 P0001 60001 T00940078 50005 TSNO
Conditions at: KFAR (FARGO , ND, US) observed 0853 UTC 21 April 2019
Temperature: 9.4°C (49°F)
Dewpoint: 7.8°C (46°F) [RH = 90%]
Pressure (altimeter): 29.80 inches Hg (1009.2 mb)
[Sea-level pressure: 1009.3 mb]
Winds: from the ENE (60 degrees) at 13 MPH (11 knots; 5.7 m/s)
Visibility: 10 or more miles (16+ km)
Ceiling: 10000 feet AGL
Clouds: broken clouds at 10000 feet AGL
broken clouds at 11000 feet AGL
Weather: -RA  (light rain)

METAR text: KFAR 210753Z AUTO 05010KT 10SM -RA FEW055 OVC085 11/08 A2981 RMK AO2 RAB16E26B42 SLP095 P0000 T01060083 TSNO
Conditions at: KFAR (FARGO , ND, US) observed 0753 UTC 21 April 2019
Temperature: 10.6°C (51°F)
Dewpoint: 8.3°C (47°F) [RH = 86%]
Pressure (altimeter): 29.81 inches Hg (1009.6 mb)
[Sea-level pressure: 1009.5 mb]
Winds: from the NE (50 degrees) at 12 MPH (10 knots; 5.1 m/s)
Visibility: 10 or more miles (16+ km)
Ceiling: 8500 feet AGL
Clouds: few clouds at 5500 feet AGL
overcast cloud deck at 8500 feet AGL
Weather: -RA  (light rain)

METAR text: KFAR 210653Z AUTO 03010KT 10SM OVC080 11/08 A2979 RMK AO2 SLP090 T01110083 TSNO
Conditions at: KFAR (FARGO , ND, US) observed 0653 UTC 21 April 2019
Temperature: 11.1°C (52°F)
Dewpoint: 8.3°C (47°F) [RH = 83%]
Pressure (altimeter): 29.79 inches Hg (1008.9 mb)
[Sea-level pressure: 1009.0 mb]
Winds: from the NNE (30 degrees) at 12 MPH (10 knots; 5.1 m/s)
Visibility: 10 or more miles (16+ km)
Ceiling: 8000 feet AGL
Clouds: overcast cloud deck at 8000 feet AGL
Weather: automated observation with no human augmentation;
there may or may not be significant weather present at this time

METAR text: KFAR 210553Z AUTO 02009KT 10SM OVC085 12/08 A2978 RMK AO2 SLP086 T01170078 10167 20117 402000083 53009 TSNO
Conditions at: KFAR (FARGO , ND, US) observed 0553 UTC 21 April 2019
Temperature: 11.7°C (53°F)
Dewpoint: 7.8°C (46°F) [RH = 77%]
Pressure (altimeter): 29.78 inches Hg (1008.5 mb)
[Sea-level pressure: 1008.6 mb]
Winds: from the NNE (20 degrees) at 10 MPH (9 knots; 4.6 m/s)
Visibility: 10 or more miles (16+ km)
Ceiling: 8500 feet AGL
Clouds: overcast cloud deck at 8500 feet AGL
Weather: automated observation with no human augmentation;
there may or may not be significant weather present at this time

METAR text: KFAR 210453Z AUTO 04013KT 10SM CLR 12/08 A2975 RMK AO2 SLP076 T01170078 TSNO
Conditions at: KFAR (FARGO , ND, US) observed 0453 UTC 21 April 2019
Temperature: 11.7°C (53°F)
Dewpoint: 7.8°C (46°F) [RH = 77%]
Pressure (altimeter): 29.75 inches Hg (1007.5 mb)
[Sea-level pressure: 1007.6 mb]
Winds: from the NE (40 degrees) at 15 MPH (13 knots; 6.7 m/s)
Visibility: 10 or more miles (16+ km)
Ceiling: at least 12,000 feet AGL
Clouds: sky clear below 12,000 feet AGL
Weather: automated observation with no human augmentation;
there may or may not be significant weather present at this time

METAR text: KFAR 210353Z 04014KT 10SM CLR 12/08 A2975 RMK AO2 SLP074 T01220083
Conditions at: KFAR (FARGO , ND, US) observed 0353 UTC 21 April 2019
Temperature: 12.2°C (54°F)
Dewpoint: 8.3°C (47°F) [RH = 77%]
Pressure (altimeter): 29.75 inches Hg (1007.5 mb)
[Sea-level pressure: 1007.4 mb]
Winds: from the NE (40 degrees) at 16 MPH (14 knots; 7.2 m/s)
Visibility: 10 or more miles (16+ km)
Ceiling: at least 12,000 feet AGL
Clouds: sky clear below 12,000 feet AGL
Weather: no significant weather observed at this time

METAR text: KFAR 210253Z 03013KT 10SM OVC110 13/11 A2975 RMK AO2 SLP078 T01330106 51021
Conditions at: KFAR (FARGO , ND, US) observed 0253 UTC 21 April 2019
Temperature: 13.3°C (56°F)
Dewpoint: 10.6°C (51°F) [RH = 84%]
Pressure (altimeter): 29.75 inches Hg (1007.5 mb)
[Sea-level pressure: 1007.8 mb]
Winds: from the NNE (30 degrees) at 15 MPH (13 knots; 6.7 m/s)
Visibility: 10 or more miles (16+ km)
Ceiling: 11000 feet AGL
Clouds: overcast cloud deck at 11000 feet AGL
Weather: no significant weather observed at this time

METAR text: KFAR 210153Z 36010KT 10SM CLR 14/11 A2974 RMK AO2 SLP073 T01390111
Conditions at: KFAR (FARGO , ND, US) observed 0153 UTC 21 April 2019
Temperature: 13.9°C (57°F)
Dewpoint: 11.1°C (52°F) [RH = 83%]
Pressure (altimeter): 29.74 inches Hg (1007.2 mb)
[Sea-level pressure: 1007.3 mb]
Winds: from the N (360 degrees) at 12 MPH (10 knots; 5.1 m/s)
Visibility: 10 or more miles (16+ km)
Ceiling: at least 12,000 feet AGL
Clouds: sky clear below 12,000 feet AGL
Weather: no significant weather observed at this time

METAR text: KFAR 210053Z 01013KT 10SM CLR 16/11 A2971 RMK AO2 SLP063 T01560111
Conditions at: KFAR (FARGO , ND, US) observed 0053 UTC 21 April 2019
Temperature: 15.6°C (60°F)
Dewpoint: 11.1°C (52°F) [RH = 75%]
Pressure (altimeter): 29.71 inches Hg (1006.2 mb)
[Sea-level pressure: 1006.3 mb]
Winds: from the N (10 degrees) at 15 MPH (13 knots; 6.7 m/s)
Visibility: 10 or more miles (16+ km)
Ceiling: at least 12,000 feet AGL
Clouds: sky clear below 12,000 feet AGL
Weather: no significant weather observed at this time

METAR text: KFAR 202353Z 01014KT 10SM CLR 17/11 A2969 RMK AO2 SLP056 60000 T01670106 10200 20167 53010
Conditions at: KFAR (FARGO , ND, US) observed 2353 UTC 20 April 2019
Temperature: 16.7°C (62°F)
Dewpoint: 10.6°C (51°F) [RH = 67%]
Pressure (altimeter): 29.69 inches Hg (1005.5 mb)
[Sea-level pressure: 1005.6 mb]
Winds: from the N (10 degrees) at 16 MPH (14 knots; 7.2 m/s)
Visibility: 10 or more miles (16+ km)
Ceiling: at least 12,000 feet AGL
Clouds: sky clear below 12,000 feet AGL
Weather: no significant weather observed at this time

METAR text: KFAR 202253Z 02013KT 10SM CLR 18/11 A2967 RMK AO2 RAB2154E05 SLP049 P0000 T01780111
Conditions at: KFAR (FARGO , ND, US) observed 2253 UTC 20 April 2019
Temperature: 17.8°C (64°F)
Dewpoint: 11.1°C (52°F) [RH = 65%]
Pressure (altimeter): 29.67 inches Hg (1004.8 mb)
[Sea-level pressure: 1004.9 mb]
Winds: from the NNE (20 degrees) at 15 MPH (13 knots; 6.7 m/s)
Visibility: 10 or more miles (16+ km)
Ceiling: at least 12,000 feet AGL
Clouds: sky clear below 12,000 feet AGL
Weather: no significant weather observed at this time

METAR text: KFAR 202153Z 01010KT 10SM BKN110 17/11 A2966 RMK AO2 SLP045 T01720111
Conditions at: KFAR (FARGO , ND, US) observed 2153 UTC 20 April 2019
Temperature: 17.2°C (63°F)
Dewpoint: 11.1°C (52°F) [RH = 67%]
Pressure (altimeter): 29.66 inches Hg (1004.5 mb)
[Sea-level pressure: 1004.5 mb]
Winds: from the N (10 degrees) at 12 MPH (10 knots; 5.1 m/s)
Visibility: 10 or more miles (16+ km)
Ceiling: 11000 feet AGL
Clouds: broken clouds at 11000 feet AGL
Weather: no significant weather observed at this time

METAR text: KFAR 202053Z 36012KT 10SM FEW080 FEW095 BKN110 17/12 A2966 RMK AO2 RAB18E29 SLP045 P0000 60000 T01720117 51005
Conditions at: KFAR (FARGO , ND, US) observed 2053 UTC 20 April 2019
Temperature: 17.2°C (63°F)
Dewpoint: 11.7°C (53°F) [RH = 70%]
Pressure (altimeter): 29.66 inches Hg (1004.5 mb)
[Sea-level pressure: 1004.5 mb]
Winds: from the N (360 degrees) at 14 MPH (12 knots; 6.2 m/s)
Visibility: 10 or more miles (16+ km)
Ceiling: 11000 feet AGL
Clouds: few clouds at 8000 feet AGL
few clouds at 9500 feet AGL
broken clouds at 11000 feet AGL
Weather: no significant weather observed at this time

METAR text: KFAR 201953Z 02006KT 10SM SCT110 19/11 A2964 RMK AO2 SLP040 T01890111
Conditions at: KFAR (FARGO , ND, US) observed 1953 UTC 20 April 2019
Temperature: 18.9°C (66°F)
Dewpoint: 11.1°C (52°F) [RH = 61%]
Pressure (altimeter): 29.64 inches Hg (1003.8 mb)
[Sea-level pressure: 1004.0 mb]
Winds: from the NNE (20 degrees) at 7 MPH (6 knots; 3.1 m/s)
Visibility: 10 or more miles (16+ km)
Ceiling: at least 12,000 feet AGL
Clouds: scattered clouds at 11000 feet AGL
Weather: no significant weather observed at this time

METAR text: KFAR 201853Z 32010KT 10SM SCT110 18/11 A2967 RMK AO2 RAB07E17 SLP049 P0000 T01830106
Conditions at: KFAR (FARGO , ND, US) observed 1853 UTC 20 April 2019
Temperature: 18.3°C (65°F)
Dewpoint: 10.6°C (51°F) [RH = 61%]
Pressure (altimeter): 29.67 inches Hg (1004.8 mb)
[Sea-level pressure: 1004.9 mb]
Winds: from the NW (320 degrees) at 12 MPH (10 knots; 5.1 m/s)
Visibility: 10 or more miles (16+ km)
Ceiling: at least 12,000 feet AGL
Clouds: scattered clouds at 11000 feet AGL
Weather: no significant weather observed at this time

METAR text: KFAR 201753Z 27006KT 10SM FEW120 18/09 A2964 RMK AO2 SLP039 T01830094 10189 20089 51005
Conditions at: KFAR (FARGO , ND, US) observed 1753 UTC 20 April 2019
Temperature: 18.3°C (65°F)
Dewpoint: 9.4°C (49°F) [RH = 56%]
Pressure (altimeter): 29.64 inches Hg (1003.8 mb)
[Sea-level pressure: 1003.9 mb]
Winds: from the W (270 degrees) at 7 MPH (6 knots; 3.1 m/s)
Visibility: 10 or more miles (16+ km)
Ceiling: at least 12,000 feet AGL
Clouds: few clouds at 12000 feet AGL
Weather: no significant weather observed at this time

METAR text: KFAR 201653Z 17004KT 10SM CLR 17/08 A2963 RMK AO2 SLP036 T01670083
Conditions at: KFAR (FARGO , ND, US) observed 1653 UTC 20 April 2019
Temperature: 16.7°C (62°F)
Dewpoint: 8.3°C (47°F) [RH = 58%]
Pressure (altimeter): 29.63 inches Hg (1003.5 mb)
[Sea-level pressure: 1003.6 mb]
Winds: from the S (170 degrees) at 5 MPH (4 knots; 2.1 m/s)
Visibility: 10 or more miles (16+ km)
Ceiling: at least 12,000 feet AGL
Clouds: sky clear below 12,000 feet AGL
Weather: no significant weather observed at this time

METAR text: KFAR 201553Z 21007KT 10SM CLR 15/07 A2964 RMK AO2 SLP039 T01500072
Conditions at: KFAR (FARGO , ND, US) observed 1553 UTC 20 April 2019
Temperature: 15.0°C (59°F)
Dewpoint: 7.2°C (45°F) [RH = 60%]
Pressure (altimeter): 29.64 inches Hg (1003.8 mb)
[Sea-level pressure: 1003.9 mb]
Winds: from the SSW (210 degrees) at 8 MPH (7 knots; 3.6 m/s)
Visibility: 10 or more miles (16+ km)
Ceiling: at least 12,000 feet AGL
Clouds: sky clear below 12,000 feet AGL
Weather: no significant weather observed at this time

METAR text: KFAR 201453Z 18012KT 10SM CLR 12/07 A2963 RMK AO2 SLP034 T01220067 50000
Conditions at: KFAR (FARGO , ND, US) observed 1453 UTC 20 April 2019
Temperature: 12.2°C (54°F)
Dewpoint: 6.7°C (44°F) [RH = 69%]
Pressure (altimeter): 29.63 inches Hg (1003.5 mb)
[Sea-level pressure: 1003.4 mb]
Winds: from the S (180 degrees) at 14 MPH (12 knots; 6.2 m/s)
Visibility: 10 or more miles (16+ km)
Ceiling: at least 12,000 feet AGL
Clouds: sky clear below 12,000 feet AGL
Weather: no significant weather observed at this time

Forecast for: KFAR (FARGO , ND, US)
Text: KFAR 212320Z 2200/2224 04014KT P6SM BKN120
Forecast period: 0000 to 0300 UTC 22 April 2019
Forecast type: FROM: standard forecast or significant change
Winds: from the NE (40 degrees) at 16 MPH (14 knots; 7.2 m/s)
Visibility: 6 or more miles 10+ km)
Ceiling: 12000 feet AGL
Clouds: broken clouds at 12000 feet AGL
Weather: no significant weather forecast for this period
Text: FM220300 03008KT P6SM BKN120
Forecast period: 0300 UTC 22 April 2019 to 0000 UTC 23 April 2019
Forecast type: FROM: standard forecast or significant change
Winds: from the NNE (30 degrees) at 9 MPH (8 knots; 4.1 m/s)
Visibility: 6 or more miles 10+ km)
Ceiling: 12000 feet AGL
Clouds: broken clouds at 12000 feet AGL
Weather: no significant weather forecast for this period